createdAt,value
2019-04-28T17:24:16.420Z,12.47
2019-04-28T17:26:48.214Z,11.45
2019-04-28T17:29:19.308Z,10.85
2019-04-28T17:31:50.454Z,12.10
2019-04-28T17:34:21.478Z,14.80
2019-04-28T17:36:53.925Z,12.55
2019-04-28T17:39:26.113Z,17.52
2019-04-28T17:42:00.202Z,15.93
2019-04-28T17:44:31.237Z,16.90
2019-04-28T17:48:58.721Z,15.15
2019-04-28T17:51:29.766Z,15.80
2019-04-28T17:54:00.843Z,15.10
2019-04-28T17:56:32.173Z,16.67
2019-04-28T17:59:03.435Z,16.15
2019-04-28T18:01:52.654Z,16.67
2019-04-28T18:04:25.234Z,18.80
2019-04-28T18:07:03.847Z,17.32
2019-04-28T18:09:36.286Z,17.35
2019-04-28T18:12:10.563Z,17.98
2019-04-28T18:14:43.247Z,18.85
2019-04-28T18:17:22.547Z,20.77
2019-04-28T18:19:53.682Z,17.40
2019-04-28T18:22:24.812Z,20.55
2019-04-28T18:24:55.753Z,17.55
2019-04-28T18:27:28.343Z,20.55
2019-04-28T18:30:00.945Z,18.62
2019-04-28T18:32:33.558Z,19.40
2019-04-28T18:35:25.011Z,19.85
2019-04-28T18:38:06.421Z,20.45
2019-04-28T18:40:39.202Z,19.15
2019-04-28T18:43:15.818Z,19.57
2019-04-28T18:45:46.897Z,20.95
2019-04-28T18:48:19.554Z,19.67
2019-04-28T18:50:50.721Z,21.90
2019-04-28T18:53:21.805Z,21.42
2019-04-28T18:55:54.540Z,21.70
2019-04-28T18:58:27.370Z,22.70
2019-04-28T19:00:59.938Z,21.55
2019-04-28T19:03:30.980Z,20.95
2019-04-28T19:06:01.984Z,22.27
2019-04-28T19:08:49.349Z,23.05
2019-04-28T19:11:24.618Z,22.60
2019-04-28T19:14:01.009Z,44.00
2019-04-28T19:16:51.656Z,48.28
2019-04-28T19:19:24.254Z,29.60
2019-04-28T19:21:56.273Z,24.57
2019-04-28T19:24:31.690Z,23.17
2019-04-28T19:27:02.693Z,22.22
2019-04-28T19:29:34.796Z,24.27
2019-04-28T19:32:05.791Z,23.50
2019-04-28T19:34:36.836Z,26.60
2019-04-28T19:37:11.002Z,25.17
2019-04-28T19:39:45.091Z,23.30
2019-04-28T19:42:17.786Z,24.82
2019-04-28T19:44:49.717Z,25.32
2019-04-28T19:47:20.790Z,26.60
2019-04-28T19:49:51.830Z,23.65
2019-04-28T19:52:22.832Z,25.30
2019-04-28T19:55:04.713Z,24.40
2019-04-28T19:57:55.474Z,24.70
2019-04-28T20:00:41.864Z,25.65
2019-04-28T20:03:12.897Z,25.77
2019-04-28T20:05:44.199Z,24.43
2019-04-28T20:08:15.199Z,23.73
2019-04-28T20:10:47.672Z,25.43
2019-04-28T20:13:20.190Z,23.32
2019-04-28T20:15:51.297Z,24.27
2019-04-28T20:18:22.404Z,24.27
2019-04-28T20:20:55.132Z,22.93
2019-04-28T20:23:26.132Z,26.37
2019-04-28T20:25:57.204Z,25.63
2019-04-28T20:28:28.342Z,24.00
2019-04-28T20:30:59.439Z,24.80
2019-04-28T20:33:30.386Z,24.63
2019-04-28T20:36:09.130Z,25.10
2019-04-28T20:38:40.280Z,24.93
2019-04-28T20:41:18.693Z,25.37
2019-04-28T20:43:51.860Z,23.47
2019-04-28T20:46:23.786Z,24.35
2019-04-28T20:48:54.810Z,24.65
2019-04-28T20:51:25.848Z,25.88
2019-04-28T20:53:58.390Z,25.40
2019-04-28T20:56:29.447Z,25.57
2019-04-28T20:59:00.490Z,24.30
2019-04-28T21:01:31.586Z,22.77
2019-04-28T21:04:02.671Z,24.20
2019-04-28T21:06:33.742Z,25.20
2019-04-28T21:09:09.513Z,25.50
2019-04-28T21:11:39.736Z,25.85
2019-04-28T21:14:12.251Z,24.77
2019-04-28T21:16:44.204Z,25.73
2019-04-28T21:19:18.321Z,25.52
2019-04-28T21:21:52.572Z,24.72
2019-04-28T21:24:23.611Z,24.92
2019-04-28T21:26:55.526Z,26.90
2019-04-28T21:29:26.611Z,27.43
2019-04-28T21:31:58.530Z,25.90
2019-04-28T21:34:29.560Z,26.07
2019-04-28T21:37:00.652Z,26.30
2019-04-28T21:39:31.702Z,26.27
2019-04-28T21:42:04.352Z,28.03
2019-04-28T21:44:53.232Z,26.68
2019-04-28T21:47:26.074Z,26.43
2019-04-28T21:49:57.146Z,27.97
2019-04-28T21:52:28.200Z,27.73
2019-04-28T21:55:00.817Z,27.67
2019-04-28T21:57:31.854Z,28.02
2019-04-28T22:00:08.204Z,28.40
2019-04-28T22:02:40.262Z,28.02
2019-04-28T22:05:12.846Z,28.43
2019-04-28T22:07:43.873Z,27.00
2019-04-28T22:10:14.892Z,25.50
2019-04-28T22:12:49.088Z,27.13
2019-04-28T22:15:21.798Z,27.73
2019-04-28T22:17:53.759Z,28.30
2019-04-28T22:20:24.786Z,28.10
2019-04-28T22:22:57.334Z,28.03
2019-04-28T22:25:28.336Z,28.85
2019-04-28T22:27:59.354Z,28.73
2019-04-28T22:30:30.605Z,27.77
2019-04-28T22:33:02.566Z,26.80
2019-04-28T22:35:33.626Z,29.07
2019-04-28T22:38:06.230Z,28.43
2019-04-28T22:40:40.507Z,28.33
2019-04-28T22:43:13.197Z,27.67
2019-04-28T22:45:44.210Z,26.97
2019-04-28T22:48:17.725Z,27.10
2019-04-28T22:50:50.297Z,27.93
2019-04-28T22:53:22.910Z,27.80
2019-04-28T22:55:58.593Z,28.40
2019-04-28T22:58:32.102Z,27.97
2019-04-28T23:01:13.576Z,27.00
2019-04-28T23:03:52.416Z,26.43
2019-04-28T23:06:23.611Z,26.57
2019-04-28T23:08:54.577Z,26.73
2019-04-28T23:11:25.688Z,26.00
2019-04-28T23:13:56.723Z,26.37
2019-04-28T23:16:27.855Z,27.43
2019-04-28T23:19:01.759Z,25.87
2019-04-28T23:21:46.483Z,26.23
2019-04-28T23:24:19.061Z,24.85
2019-04-28T23:26:51.663Z,26.67
2019-04-28T23:29:22.625Z,26.23
2019-04-28T23:31:55.214Z,26.63
2019-04-28T23:34:27.137Z,25.53
2019-04-28T23:36:58.141Z,25.10
2019-04-28T23:39:29.168Z,25.47
2019-04-28T23:42:18.283Z,25.52
2019-04-28T23:44:50.258Z,24.60
2019-04-28T23:47:21.254Z,26.37
2019-04-28T23:49:52.319Z,24.10
2019-04-28T23:52:25.180Z,22.87
2019-04-28T23:55:00.827Z,25.37
2019-04-28T23:57:31.828Z,24.23
